Time;durP1;ratioP1;P1;durP2;ratioP2;P2;SDS_P1;SDS_P2;PMS_P1;PMS_P2;Temp;Humidity;BMP_temperature;BMP_pressure;BME280_temperature;BME280_humidity;BME280_pressure;Samples;Min_cycle;Max_cycle;Signal;HPM_P1;HPM_P2
2022/07/31 08:05:38;;;;;;;;;6.00;6.00;;;;;24.20;49.75;101816.16;2932455;23;46026;31
2022/07/31 08:06:49;;;;;;;;;5.25;3.75;;;;;24.18;49.71;101799.31;2370881;28;45663;-87
2022/07/31 08:07:59;;;;;;;;;5.00;4.25;;;;;24.19;49.77;101811.78;2374189;28;46280;-88
2022/07/31 08:09:09;;;;;;;;;6.00;6.00;;;;;24.20;49.64;101799.19;2365753;29;45312;-88
2022/07/31 08:10:20;;;;;;;;;5.50;5.50;;;;;24.22;49.56;101808.88;2367983;28;46336;-86
2022/07/31 08:11:30;;;;;;;;;5.00;5.00;;;;;24.26;49.77;101798.75;2375807;28;44663;-85
2022/07/31 08:12:40;;;;;;;;;6.00;6.00;;;;;24.31;49.74;101809.16;2373340;28;45215;-85
2022/07/31 08:13:51;;;;;;;;;5.00;4.75;;;;;24.32;49.55;101805.50;2369726;28;44749;-85
2022/07/31 08:15:03;;;;;;;;;6.00;6.00;;;;;24.32;49.50;101810.88;2373598;28;48271;-86
2022/07/31 08:16:13;;;;;;;;;4.00;4.00;;;;;24.33;49.51;101810.75;2362795;29;45476;-86
2022/07/31 08:17:24;;;;;;;;;5.75;5.75;;;;;24.35;49.72;101805.25;2349808;29;51339;-86
2022/07/31 08:18:34;;;;;;;;;5.75;5.00;;;;;24.38;49.90;101811.28;2362903;28;45657;-86
2022/07/31 08:19:45;;;;;;;;;9.25;7.00;;;;;24.38;49.58;101805.91;2366479;28;45350;-86
2022/07/31 08:20:55;;;;;;;;;7.50;6.50;;;;;24.37;49.44;101806.84;2370653;28;44812;-86
2022/07/31 08:22:06;;;;;;;;;8.00;5.50;;;;;24.38;49.39;101807.72;2365180;29;46662;-87
2022/07/31 08:23:16;;;;;;;;;5.25;4.50;;;;;24.38;49.44;101810.41;2358524;29;45360;-86
2022/07/31 08:24:27;;;;;;;;;6.25;5.00;;;;;24.38;49.24;101811.28;2364578;29;48988;-85
2022/07/31 08:25:37;;;;;;;;;8.50;6.00;;;;;24.43;49.75;101813.59;2367699;28;45320;-87
2022/07/31 08:28:16;;;;;;;;;6.25;6.25;;;;;24.48;49.36;101811.44;2366373;29;45287;-87
2022/07/31 08:29:27;;;;;;;;;5.50;5.50;;;;;24.50;49.37;101803.25;2356345;29;48093;-86
2022/07/31 08:30:38;;;;;;;;;6.50;6.25;;;;;24.50;49.29;101804.09;2363399;28;45308;-87
2022/07/31 08:31:48;;;;;;;;;7.00;7.00;;;;;24.53;49.00;101807.53;2360634;29;47141;-87
2022/07/31 08:32:58;;;;;;;;;9.25;7.00;;;;;24.49;49.31;101802.41;2368212;28;45429;-87
2022/07/31 08:34:09;;;;;;;;;4.75;4.25;;;;;24.47;49.11;101800.81;2365341;29;46243;-87
2022/07/31 08:35:19;;;;;;;;;6.50;5.00;;;;;24.44;49.03;101799.22;2367551;28;45236;-87
2022/07/31 08:36:29;;;;;;;;;6.25;6.00;;;;;24.44;49.16;101809.09;2364384;29;47946;-87
2022/07/31 08:37:41;;;;;;;;;7.25;7.25;;;;;24.44;49.43;101804.59;2368395;28;45431;-87
2022/07/31 08:38:52;;;;;;;;;5.75;5.75;;;;;24.43;49.36;101797.47;2366707;28;45236;-87
2022/07/31 08:40:02;;;;;;;;;6.00;6.00;;;;;24.46;49.63;101810.69;2369845;28;45224;-88
2022/07/31 08:41:13;;;;;;;;;7.00;6.00;;;;;24.46;49.67;101808.00;2375272;28;46138;-87
2022/07/31 08:42:24;;;;;;;;;6.00;5.50;;;;;24.50;49.42;101798.72;2374705;28;45165;-88
2022/07/31 08:43:35;;;;;;;;;6.50;6.25;;;;;24.53;49.62;101800.31;2365460;29;46811;-88
2022/07/31 08:44:45;;;;;;;;;6.25;6.25;;;;;24.57;49.36;101801.78;2367890;28;45740;-89
2022/07/31 08:46:01;;;;;;;;;7.50;5.75;;;;;24.60;48.64;101803.41;2365144;29;47562;-87
2022/07/31 08:47:14;;;;;;;;;5.00;5.00;;;;;24.59;48.77;101799.00;2367739;28;45300;-87
2022/07/31 08:48:27;;;;;;;;;5.50;5.50;;;;;24.59;48.72;101796.31;2372370;28;46327;-89
2022/07/31 08:49:45;;;;;;;;;6.00;6.00;;;;;24.59;49.11;101799.00;2365333;29;45412;-91
2022/07/31 08:50:57;;;;;;;;;6.00;6.00;;;;;24.59;48.99;101801.69;2366573;28;45765;-87
2022/07/31 08:52:09;;;;;;;;;11.00;6.25;;;;;24.61;49.12;101797.06;2365214;29;45283;-90
2022/07/31 08:53:21;;;;;;;;;6.75;5.00;;;;;24.63;49.37;101805.84;2356532;29;47932;-92
2022/07/31 08:54:34;;;;;;;;;6.00;6.00;;;;;24.64;48.89;101799.50;2353541;29;45297;-82
2022/07/31 08:55:44;;;;;;;;;6.50;6.00;;;;;24.69;48.49;101802.69;2360381;29;46226;-82
2022/07/31 08:56:55;;;;;;;;;8.25;6.75;;;;;24.70;48.78;101793.66;2369191;28;45236;-82
2022/07/31 08:58:05;;;;;;;;;6.25;6.25;;;;;24.72;48.79;101790.84;2375257;28;46531;-82
2022/07/31 08:59:16;;;;;;;;;8.00;5.00;;;;;24.73;48.82;101797.94;2369065;28;45510;-82
2022/07/31 09:00:27;;;;;;;;;6.00;6.00;;;;;24.72;48.79;101794.38;2367259;28;46129;-82
2022/07/31 09:01:38;;;;;;;;;6.00;6.00;;;;;24.75;48.44;101795.97;2374892;28;44806;-80
2022/07/31 09:02:48;;;;;;;;;6.00;6.00;;;;;24.77;48.83;101798.56;2370996;28;45454;-81
2022/07/31 09:03:59;;;;;;;;;7.50;7.00;;;;;24.77;48.24;101794.03;2366998;28;45365;-82
2022/07/31 09:05:10;;;;;;;;;6.50;6.50;;;;;24.79;48.47;101802.00;2365214;29;48205;-82
2022/07/31 09:06:20;;;;;;;;;6.25;6.25;;;;;24.79;48.45;101780.47;2365174;29;45298;-82
2022/07/31 09:07:31;;;;;;;;;9.50;6.75;;;;;24.81;48.66;101795.53;2366525;28;45299;-82
2022/07/31 12:46:36;;;;;;;;;19.25;18.75;;;;;27.48;43.26;101692.78;2325106;23;45868;-84
2022/07/31 12:47:52;;;;;;;;;68.25;51.00;;;;;27.48;43.02;101692.78;2373866;28;45463;-83
2022/07/31 12:49:04;;;;;;;;;31.00;26.00;;;;;27.49;43.29;101685.50;2378771;28;45481;-84
2022/07/31 12:50:14;;;;;;;;;54.75;43.00;;;;;27.50;43.07;101688.09;2372028;28;46737;-84
2022/07/31 12:51:24;;;;;;;;;51.75;41.00;;;;;27.52;43.23;101693.34;2371907;28;44801;-84
2022/07/31 12:52:36;;;;;;;;;13.50;12.00;;;;;27.55;43.22;101692.22;2377808;28;45500;-84
2022/07/31 12:53:46;;;;;;;;;41.00;32.50;;;;;27.57;43.04;101685.69;2378239;28;45296;-84
2022/07/31 12:54:57;;;;;;;;;12.25;9.25;;;;;27.59;42.66;101682.81;2380962;28;45332;-84
2022/07/31 12:56:11;;;;;;;;;8.25;7.25;;;;;27.59;43.15;101680.97;2380433;28;45473;-84
2022/07/31 12:57:21;;;;;;;;;15.50;15.50;;;;;27.59;43.16;101675.59;2383216;28;45474;-84
2022/07/31 12:58:32;;;;;;;;;6.00;6.00;;;;;27.61;42.87;101672.72;2370684;28;45563;-84
2022/07/31 12:59:42;;;;;;;;;12.50;12.50;;;;;27.62;43.15;101672.59;2374330;28;46235;-84
2022/07/31 13:00:53;;;;;;;;;13.50;13.25;;;;;27.64;43.01;101677.84;2378337;28;46415;-84
2022/07/31 13:02:05;;;;;;;;;6.50;6.50;;;;;27.67;43.41;101680.28;2379923;28;48023;-84
2022/07/31 13:03:15;;;;;;;;;6.25;6.00;;;;;27.68;43.14;101673.88;2377176;28;45343;-84
2022/07/31 13:04:26;;;;;;;;;6.25;6.25;;;;;27.69;43.53;101669.31;2377129;28;46354;-84
2022/07/31 13:05:36;;;;;;;;;6.50;6.00;;;;;27.72;43.13;101671.75;2369339;28;45796;-84
2022/07/31 13:06:47;;;;;;;;;6.50;5.00;;;;;27.74;43.65;101676.03;2375510;28;45377;-84
2022/07/31 13:07:58;;;;;;;;;7.25;7.00;;;;;27.78;43.20;101679.28;2381828;28;45441;-84
2022/07/31 13:09:08;;;;;;;;;5.50;3.50;;;;;27.78;42.91;101675.75;2381736;28;46446;-83
2022/07/31 13:10:19;;;;;;;;;7.00;5.50;;;;;27.79;43.15;101667.53;2379722;28;45362;-84
2022/07/31 13:11:32;;;;;;;;;6.00;5.25;;;;;27.82;43.04;101666.38;2381799;28;48503;-84
2022/07/31 13:12:42;;;;;;;;;5.50;4.00;;;;;27.83;42.55;101658.13;2372557;28;45488;-84
2022/07/31 13:13:55;;;;;;;;;9.25;7.25;;;;;27.89;43.08;101655.84;2365707;28;46499;-84
2022/07/31 13:15:06;;;;;;;;;4.00;4.00;;;;;27.93;43.14;101663.53;2373720;28;45551;-84
2022/07/31 13:16:17;;;;;;;;;8.75;8.00;;;;;27.95;42.90;101658.81;2370823;28;45999;-84
2022/07/31 13:17:28;;;;;;;;;8.00;6.25;;;;;27.97;42.95;101661.41;2376467;28;45525;-84
2022/07/31 13:18:38;;;;;;;;;5.25;5.25;;;;;28.01;42.73;101664.66;2370702;28;48275;-84
2022/07/31 13:19:49;;;;;;;;;5.00;5.00;;;;;28.03;42.71;101663.50;2369779;28;45496;-84
2022/07/31 13:20:59;;;;;;;;;7.25;7.25;;;;;28.05;42.96;101672.31;2381899;28;45481;-84
2022/07/31 13:22:09;;;;;;;;;4.75;4.75;;;;;28.05;42.78;101672.31;2379565;28;45369;-84
2022/07/31 13:23:20;;;;;;;;;3.75;3.75;;;;;28.07;42.23;101672.19;2376467;28;46393;-84
2022/07/31 13:24:30;;;;;;;;;4.75;4.75;;;;;28.09;42.54;101662.09;2381540;28;45491;-84
2022/07/31 13:25:41;;;;;;;;;5.25;5.00;;;;;28.11;42.35;101665.50;2378724;28;45510;-83
2022/07/31 13:26:51;;;;;;;;;5.50;5.50;;;;;28.13;42.80;101662.63;2378785;28;45509;-84
2022/07/31 13:28:02;;;;;;;;;5.75;4.75;;;;;28.15;42.47;101660.66;2380950;28;46363;-84
2022/07/31 13:29:12;;;;;;;;;4.00;4.00;;;;;28.18;42.57;101655.81;2377197;28;45387;-84
2022/07/31 13:30:23;;;;;;;;;8.00;6.00;;;;;28.21;42.54;101657.38;2383937;28;45315;-84
2022/07/31 13:31:33;;;;;;;;;6.00;4.75;;;;;28.26;42.65;101657.78;2382531;28;45436;-84
2022/07/31 13:32:44;;;;;;;;;5.25;5.25;;;;;28.27;42.23;101659.50;2379860;28;45191;-84
2022/07/31 13:33:55;;;;;;;;;7.00;6.00;;;;;28.28;42.37;101653.06;2379795;28;45442;-84
2022/07/31 13:35:06;;;;;;;;;4.25;4.25;;;;;28.33;42.15;101659.88;2380628;28;45359;-84
2022/07/31 13:36:17;;;;;;;;;6.00;6.00;;;;;28.31;42.75;101655.50;2379640;28;45472;-84
2022/07/31 13:37:27;;;;;;;;;6.00;5.75;;;;;28.34;42.13;101645.38;2380162;28;45548;-84
2022/07/31 13:38:37;;;;;;;;;6.00;4.00;;;;;28.34;42.42;101648.94;2381352;28;45341;-84
2022/07/31 13:39:48;;;;;;;;;4.00;4.00;;;;;28.37;42.34;101647.81;2378216;28;45995;-84
2022/07/31 13:42:27;;;;;;;;;5.75;5.50;;;;;28.37;42.05;101645.09;2382196;28;45859;-84
2022/07/31 13:43:37;;;;;;;;;4.00;3.25;;;;;28.39;42.11;101646.66;2378048;28;45732;-84
2022/07/31 13:44:47;;;;;;;;;4.00;4.00;;;;;28.40;41.71;101647.47;2382388;28;46604;-84
2022/07/31 13:45:58;;;;;;;;;6.00;4.50;;;;;28.42;41.89;101645.50;2380602;28;45239;-84
2022/07/31 13:47:08;;;;;;;;;6.25;4.50;;;;;28.42;42.22;101645.50;2380853;28;45318;-84
2022/07/31 13:48:18;;;;;;;;;3.25;2.25;;;;;28.41;42.52;101650.06;2367516;28;45577;-84
2022/07/31 13:49:31;;;;;;;;;6.75;6.25;;;;;28.39;42.24;101635.84;2372546;28;46998;-84
2022/07/31 13:50:41;;;;;;;;;4.25;4.25;;;;;28.42;42.03;101648.22;2372720;28;45460;-84
2022/07/31 13:51:52;;;;;;;;;4.00;3.50;;;;;28.42;41.54;101638.22;2373917;28;45338;-84
2022/07/31 13:53:02;;;;;;;;;3.25;3.00;;;;;28.43;42.30;101639.09;2378533;28;45452;-84
2022/07/31 13:54:12;;;;;;;;;2.25;2.25;;;;;28.44;41.90;101635.44;2378650;28;45524;-84
2022/07/31 13:55:24;;;;;;;;;4.00;4.00;;;;;28.47;41.96;101636.97;2368381;28;44829;-84
2022/07/31 13:56:35;;;;;;;;;3.00;3.00;;;;;28.46;41.96;101635.25;2369104;28;45420;-84
2022/07/31 13:57:46;;;;;;;;;4.50;3.25;;;;;28.47;42.21;101634.28;2382777;28;45382;-84
2022/07/31 13:58:56;;;;;;;;;3.50;3.50;;;;;28.46;41.96;101635.25;2377740;28;46291;-84
2022/07/31 14:00:07;;;;;;;;;3.50;3.50;;;;;28.46;42.12;101633.44;2381290;28;44820;-85
2022/07/31 14:01:17;;;;;;;;;3.00;3.00;;;;;28.48;41.99;101635.97;2381679;28;45705;-84
2022/07/31 14:02:28;;;;;;;;;3.50;3.00;;;;;28.46;42.07;101628.03;2382950;28;44712;-84
2022/07/31 14:03:38;;;;;;;;;2.50;2.50;;;;;28.47;42.46;101624.28;2382451;28;45433;-84
2022/07/31 14:04:48;;;;;;;;;4.50;4.50;;;;;28.47;41.81;101627.00;2372654;28;46809;-84
2022/07/31 14:05:59;;;;;;;;;4.00;3.75;;;;;28.48;42.12;101626.00;2376149;28;45473;-84
2022/07/31 14:07:09;;;;;;;;;3.00;3.00;;;;;28.50;41.90;101625.84;2379976;28;44850;-85
2022/07/31 14:08:20;;;;;;;;;4.00;4.00;;;;;28.49;42.11;101625.03;2371714;28;47391;-85
2022/07/31 14:09:33;;;;;;;;;4.00;4.00;;;;;28.49;42.38;101619.63;2368451;28;44749;-85
2022/07/31 14:10:45;;;;;;;;;4.00;3.25;;;;;28.50;42.17;101621.31;2382925;28;47195;-83
2022/07/31 14:11:55;;;;;;;;;3.25;3.25;;;;;28.53;42.00;101623.72;2382183;28;45312;-83
2022/07/31 14:13:05;;;;;;;;;4.25;4.25;;;;;28.56;42.04;101624.41;2379204;28;46355;-83
2022/07/31 14:14:16;;;;;;;;;4.00;4.00;;;;;28.56;42.09;101621.72;2381133;28;44739;-83
2022/07/31 14:15:26;;;;;;;;;3.50;3.50;;;;;28.58;42.20;101617.00;2382908;28;45429;-83
2022/07/31 14:16:36;;;;;;;;;3.75;3.75;;;;;28.60;42.09;101615.84;2384238;28;45493;-83
2022/07/31 14:17:47;;;;;;;;;3.25;3.00;;;;;28.62;41.63;101615.72;2381980;28;45425;-82
2022/07/31 14:18:57;;;;;;;;;3.00;3.00;;;;;28.62;42.11;101613.84;2382725;28;45429;-82
2022/07/31 14:20:08;;;;;;;;;4.50;4.00;;;;;28.68;41.36;101608.84;2384591;28;46193;-82
2022/07/31 14:21:18;;;;;;;;;5.00;5.00;;;;;28.67;41.80;101604.44;2383306;28;45465;-82
2022/07/31 14:22:29;;;;;;;;;3.50;3.25;;;;;28.69;41.81;101611.41;2377453;28;45453;-82
2022/07/31 14:23:39;;;;;;;;;4.75;3.00;;;;;28.73;41.99;101609.25;2385597;28;44807;-82
2022/07/31 14:24:50;;;;;;;;;6.00;4.00;;;;;28.73;41.62;101604.69;2382955;28;45547;-82
2022/07/31 14:26:01;;;;;;;;;3.50;3.00;;;;;28.75;42.23;101608.09;2389155;28;45538;-83
2022/07/31 14:27:12;;;;;;;;;4.00;4.00;;;;;28.77;41.54;101607.94;2368759;28;47031;-82
2022/07/31 14:28:23;;;;;;;;;3.50;3.50;;;;;28.80;41.69;101610.34;2379447;28;45290;-83
2022/07/31 14:29:34;;;;;;;;;3.00;3.00;;;;;28.80;41.69;101604.94;2384561;28;46391;-83
2022/07/31 14:30:46;;;;;;;;;4.00;4.00;;;;;28.81;41.93;101603.94;2384450;28;45388;-82
2022/07/31 14:31:57;;;;;;;;;3.00;3.00;;;;;28.85;41.59;101599.06;2383366;28;47160;-83
2022/07/31 14:33:07;;;;;;;;;5.50;5.50;;;;;28.88;41.82;101596.06;2383733;28;45304;-82
2022/07/31 14:34:18;;;;;;;;;5.50;3.75;;;;;28.92;41.62;101604.72;2379626;28;45427;-82
2022/07/31 14:35:28;;;;;;;;;3.50;3.50;;;;;28.93;41.39;101607.28;2381668;28;45367;-82
2022/07/31 14:36:38;;;;;;;;;4.50;4.50;;;;;28.96;41.34;101596.16;2374603;28;48078;-83
2022/07/31 14:37:49;;;;;;;;;4.00;4.00;;;;;28.97;41.06;101600.56;2375825;28;45322;-82
2022/07/31 14:38:59;;;;;;;;;4.25;4.25;;;;;29.00;40.75;101594.00;2379171;28;45960;-82
2022/07/31 14:40:10;;;;;;;;;4.00;4.00;;;;;29.02;40.66;101588.41;2381698;28;45438;-82
2022/07/31 14:41:20;;;;;;;;;4.75;4.75;;;;;29.03;41.21;101593.69;2380812;28;45530;-82
2022/07/31 14:42:31;;;;;;;;;5.00;4.00;;;;;29.05;40.86;101594.38;2387212;28;45439;-81
2022/07/31 14:43:42;;;;;;;;;3.00;3.00;;;;;29.06;41.17;101597.94;2385292;28;46255;-82
2022/07/31 14:44:52;;;;;;;;;4.25;3.50;;;;;29.09;40.76;101597.66;2377536;28;44789;-81
2022/07/31 14:46:04;;;;;;;;;4.00;4.00;;;;;29.11;41.10;101595.66;2373481;28;47944;-83
2022/07/31 14:47:15;;;;;;;;;6.00;4.25;;;;;29.15;40.97;101596.19;2372222;28;44674;-82
2022/07/31 14:48:26;;;;;;;;;4.00;3.00;;;;;29.16;40.22;101581.66;2384884;28;45410;-81
2022/07/31 14:49:37;;;;;;;;;4.00;4.00;;;;;29.20;40.72;101592.03;2379530;28;45307;-82
2022/07/31 14:50:48;;;;;;;;;4.00;4.00;;;;;29.21;40.33;101591.00;2383597;28;45470;-83
2022/07/31 14:51:58;;;;;;;;;4.50;3.50;;;;;29.24;40.37;101586.31;2381684;28;45515;-82
2022/07/31 14:53:10;;;;;;;;;4.25;3.25;;;;;29.25;40.82;101591.56;2384204;28;45521;-82
2022/07/31 14:54:20;;;;;;;;;6.50;5.00;;;;;29.26;40.46;101581.59;2385507;28;45839;-82
2022/07/31 14:55:30;;;;;;;;;3.75;3.75;;;;;29.25;40.75;101579.88;2388386;28;46391;-81
2022/07/31 14:56:40;;;;;;;;;3.00;3.00;;;;;29.22;39.85;101581.03;2385987;28;44707;-82
2022/07/31 14:57:51;;;;;;;;;4.75;4.75;;;;;29.19;40.38;101584.91;2382198;28;45609;-82
2022/07/31 14:59:01;;;;;;;;;6.50;6.50;;;;;29.17;40.38;101589.63;2376585;28;45276;-83
2022/07/31 15:00:12;;;;;;;;;5.00;5.00;;;;;29.14;40.43;101587.22;2378685;28;45392;-83
2022/07/31 15:01:23;;;;;;;;;4.50;3.25;;;;;29.12;40.41;101586.53;2380702;28;46085;-83
2022/07/31 15:02:33;;;;;;;;;5.50;4.25;;;;;29.11;40.60;101587.56;2381570;28;45516;-84
2022/07/31 15:03:43;;;;;;;;;4.25;4.25;;;;;29.10;40.47;101580.44;2380331;28;45479;-82
2022/07/31 15:04:54;;;;;;;;;4.00;4.00;;;;;29.08;40.55;101577.03;2379156;28;45387;-82
2022/07/31 15:06:04;;;;;;;;;4.00;4.00;;;;;29.08;40.90;101586.00;2382090;28;45992;-82
2022/07/31 15:07:14;;;;;;;;;3.25;3.25;;;;;29.08;40.12;101582.44;2379859;28;45361;-82
2022/07/31 15:08:25;;;;;;;;;6.25;5.00;;;;;29.06;39.79;101590.69;2378317;28;45402;-82
2022/07/31 15:09:35;;;;;;;;;5.25;3.75;;;;;29.01;40.10;101582.19;2379465;28;46353;-82
2022/07/31 15:10:45;;;;;;;;;3.25;3.25;;;;;28.97;40.06;101587.03;2378714;28;45290;-82
2022/07/31 15:11:56;;;;;;;;;6.25;5.25;;;;;28.91;40.48;101574.13;2374212;28;47163;-83
2022/07/31 15:13:07;;;;;;;;;3.25;3.25;;;;;28.89;40.21;101578.00;2367982;28;45537;-82
2022/07/31 15:14:17;;;;;;;;;3.00;3.00;;;;;28.84;40.57;101578.44;2365450;29;46220;-82
2022/07/31 15:15:28;;;;;;;;;4.00;4.00;;;;;28.83;40.83;101574.03;2371634;28;45310;-83
2022/07/31 15:16:38;;;;;;;;;4.00;4.00;;;;;28.83;41.18;101580.28;2381126;28;45517;-82
2022/07/31 15:17:48;;;;;;;;;6.25;4.25;;;;;28.83;40.39;101574.88;2376721;28;45397;-82
2022/07/31 15:18:59;;;;;;;;;4.50;4.00;;;;;28.81;40.35;101571.50;2379474;28;46412;-82
2022/07/31 15:20:09;;;;;;;;;3.75;3.75;;;;;28.82;40.46;101570.47;2382657;28;45330;-83
2022/07/31 15:21:20;;;;;;;;;7.00;6.00;;;;;28.84;40.60;101579.28;2387115;28;45918;-82
2022/07/31 15:22:30;;;;;;;;;3.50;3.50;;;;;28.84;40.70;101575.75;2385146;28;45373;-82
2022/07/31 15:23:41;;;;;;;;;4.50;4.50;;;;;28.83;40.58;101571.31;2384863;28;46499;-82
2022/07/31 15:24:52;;;;;;;;;3.75;3.75;;;;;28.83;40.79;101565.91;2382557;28;45739;-83
2022/07/31 15:26:02;;;;;;;;;6.25;5.00;;;;;28.82;40.70;101570.47;2369119;28;45427;-82
2022/07/31 15:27:13;;;;;;;;;5.00;5.00;;;;;28.84;40.92;101571.16;2378428;28;45509;-82
2022/07/31 15:28:23;;;;;;;;;5.00;5.00;;;;;28.84;40.87;101568.44;2382420;28;46170;-82
2022/07/31 15:29:34;;;;;;;;;4.00;4.00;;;;;28.88;40.47;101569.00;2383573;28;45437;-82
2022/07/31 15:30:44;;;;;;;;;5.25;3.50;;;;;28.90;40.75;101561.59;2381492;28;46270;-82
2022/07/31 15:31:54;;;;;;;;;4.25;4.25;;;;;28.89;40.54;101565.31;2376704;28;44779;-83
2022/07/31 15:33:04;;;;;;;;;4.00;4.00;;;;;28.91;40.39;101567.84;2384192;28;45311;-82
2022/07/31 15:34:15;;;;;;;;;4.50;4.50;;;;;28.92;40.28;101566.84;2382481;28;45416;-82
2022/07/31 15:35:25;;;;;;;;;4.00;4.00;;;;;28.92;40.67;101562.28;2382014;28;46220;-82
2022/07/31 15:36:36;;;;;;;;;5.25;4.00;;;;;28.94;40.32;101557.56;2381686;28;45463;-83
2022/07/31 15:37:48;;;;;;;;;3.75;3.75;;;;;28.96;40.52;101558.28;2379553;28;46434;-82
2022/07/31 15:38:58;;;;;;;;;4.25;4.00;;;;;28.98;40.83;101560.84;2377306;28;45319;-82
2022/07/31 15:40:12;;;;;;;;;5.00;5.00;;;;;29.02;40.33;101564.06;2382946;28;45294;-82
2022/07/31 15:41:22;;;;;;;;;3.25;3.25;;;;;29.04;41.14;101560.19;2378313;28;45378;-82
2022/07/31 15:42:39;;;;;;;;;6.50;5.00;;;;;29.03;40.78;101554.97;2382224;28;45449;-82
2022/07/31 15:43:49;;;;;;;;;5.50;5.00;;;;;29.07;40.65;101561.75;2381745;28;44861;-82
2022/07/31 15:44:59;;;;;;;;;3.50;3.50;;;;;29.08;40.51;101549.97;2379588;28;45385;-82
2022/07/31 15:46:10;;;;;;;;;5.50;4.00;;;;;29.10;39.85;101553.38;2375490;28;45514;-83
2022/07/31 15:47:20;;;;;;;;;4.75;4.75;;;;;29.12;40.44;101555.91;2378925;28;45448;-82
2022/07/31 15:48:31;;;;;;;;;4.00;4.00;;;;;29.12;40.49;101554.06;2381548;28;45030;-82
2022/07/31 15:49:42;;;;;;;;;5.50;5.50;;;;;29.16;40.63;101562.72;2383130;28;45485;-82
2022/07/31 15:50:52;;;;;;;;;5.75;4.50;;;;;29.14;40.50;101552.03;2381610;28;45419;-82
2022/07/31 15:52:03;;;;;;;;;6.00;5.75;;;;;29.16;39.73;101550.06;2377104;28;45558;-83
2022/07/31 15:53:13;;;;;;;;;6.00;6.00;;;;;29.17;40.21;101553.59;2380411;28;45464;-82
2022/07/31 15:54:23;;;;;;;;;4.00;3.00;;;;;29.17;40.21;101548.19;2382381;28;45623;-82
2022/07/31 15:55:34;;;;;;;;;4.25;4.25;;;;;29.19;40.11;101549.72;2382409;28;44756;-82
2022/07/31 15:56:45;;;;;;;;;4.50;4.50;;;;;29.22;40.02;101551.28;2378851;28;46546;-81
2022/07/31 15:57:56;;;;;;;;;5.00;5.00;;;;;29.23;39.96;101549.41;2380708;28;45406;-82
2022/07/31 15:59:07;;;;;;;;;3.50;3.50;;;;;29.25;40.04;101550.09;2380595;28;45460;-82
2022/07/31 16:00:17;;;;;;;;;6.50;5.00;;;;;29.27;40.02;101545.38;2380592;28;45489;-82
2022/07/31 16:01:28;;;;;;;;;6.00;3.75;;;;;29.28;39.47;101547.97;2379718;28;46421;-82
2022/07/31 16:02:39;;;;;;;;;4.50;4.50;;;;;29.30;40.39;101542.38;2380511;28;45368;-82
2022/07/31 16:03:49;;;;;;;;;4.00;3.00;;;;;29.33;40.00;101547.47;2382629;28;45450;-82
2022/07/31 16:04:59;;;;;;;;;5.50;4.75;;;;;29.34;40.00;101545.63;2382822;28;45448;-82
2022/07/31 16:06:10;;;;;;;;;5.00;3.75;;;;;29.33;39.53;101539.38;2369980;28;47913;-82
2022/07/31 16:07:21;;;;;;;;;4.50;4.50;;;;;29.30;39.69;101537.81;2373778;28;45492;-82
2022/07/31 16:08:32;;;;;;;;;5.25;5.25;;;;;29.25;39.64;101542.84;2381162;28;45519;-82
2022/07/31 16:09:42;;;;;;;;;7.50;5.50;;;;;29.23;40.18;101535.88;2373256;28;45451;-83
2022/07/31 16:10:53;;;;;;;;;6.00;4.50;;;;;29.21;40.25;101545.00;2373695;28;48214;-82
2022/07/31 16:12:03;;;;;;;;;6.00;4.75;;;;;29.19;40.28;101538.91;2382711;28;46630;-82
2022/07/31 16:13:14;;;;;;;;;3.50;3.50;;;;;29.20;40.40;101539.75;2380283;28;45462;-83
2022/07/31 16:14:25;;;;;;;;;4.50;3.75;;;;;29.21;40.25;101539.59;2370241;28;45233;-82
2022/07/31 16:15:35;;;;;;;;;3.75;3.75;;;;;29.23;40.19;101547.56;2373941;28;45366;-83
2022/07/31 16:16:46;;;;;;;;;4.00;3.75;;;;;29.26;39.82;101544.53;2381935;28;45358;-83
2022/07/31 16:17:56;;;;;;;;;3.00;3.00;;;;;29.29;39.85;101540.66;2372354;28;48048;-83
2022/07/31 16:19:07;;;;;;;;;3.75;3.75;;;;;29.31;39.98;101538.69;2374119;28;45502;-82
2022/07/31 16:20:21;;;;;;;;;4.75;3.50;;;;;29.31;40.12;101534.09;2381832;28;46098;-82
2022/07/31 16:21:31;;;;;;;;;2.75;2.25;;;;;29.37;39.80;101526.34;2378806;28;44800;-82
2022/07/31 16:22:43;;;;;;;;;4.50;4.50;;;;;29.38;39.54;101526.22;2382385;28;45602;-82
2022/07/31 16:23:53;;;;;;;;;6.75;5.00;;;;;29.40;39.66;101523.34;2385740;28;44740;-82
2022/07/31 16:25:05;;;;;;;;;3.75;3.75;;;;;29.42;39.39;101522.19;2383511;28;45465;-82
2022/07/31 16:26:15;;;;;;;;;3.25;3.25;;;;;29.40;40.04;101520.63;2379703;28;44740;-82
2022/07/31 16:27:26;;;;;;;;;4.00;4.00;;;;;29.41;40.23;101520.47;2378315;28;46224;-82
2022/07/31 16:28:37;;;;;;;;;5.00;5.00;;;;;29.42;39.59;101516.75;2380880;28;46386;-82
2022/07/31 16:29:48;;;;;;;;;4.00;4.00;;;;;29.42;39.27;101522.19;2378769;28;46339;-82
2022/07/31 16:30:58;;;;;;;;;4.50;3.00;;;;;29.41;40.10;101515.03;2381460;28;45227;-81
2022/07/31 16:32:09;;;;;;;;;5.00;4.00;;;;;29.42;39.92;101522.19;2379353;28;45552;-81
2022/07/31 16:33:19;;;;;;;;;5.25;4.00;;;;;29.44;40.19;101516.59;2381074;28;44827;-82
2022/07/31 16:34:29;;;;;;;;;4.00;4.00;;;;;29.48;39.75;101517.13;2379213;28;45533;-82
2022/07/31 16:35:40;;;;;;;;;4.00;4.00;;;;;29.50;39.71;101515.97;2382391;28;45416;-81
2022/07/31 16:36:50;;;;;;;;;4.25;4.25;;;;;29.52;39.55;101518.50;2370072;28;47099;-82
2022/07/31 16:38:00;;;;;;;;;4.75;4.00;;;;;29.54;39.74;101509.22;2373355;28;45494;-83
2022/07/31 16:39:12;;;;;;;;;6.00;6.00;;;;;29.55;39.48;101512.78;2381535;28;45746;-82
2022/07/31 16:40:24;;;;;;;;;4.25;4.25;;;;;29.59;39.26;101516.00;2377385;28;45789;-83
2022/07/31 16:41:35;;;;;;;;;6.25;5.25;;;;;29.60;39.74;101513.16;2379373;28;48384;-83
2022/07/31 16:42:49;;;;;;;;;4.25;3.00;;;;;29.62;38.90;101504.88;2383863;28;45524;-83
2022/07/31 16:43:59;;;;;;;;;7.00;5.50;;;;;29.61;40.16;101506.72;2376803;28;46428;-83
2022/07/31 16:45:10;;;;;;;;;4.25;4.25;;;;;29.60;39.47;101513.16;2369507;28;45399;-83
2022/07/31 16:46:21;;;;;;;;;5.00;4.00;;;;;29.61;39.84;101514.84;2374479;28;46433;-83
2022/07/31 16:47:31;;;;;;;;;4.75;4.00;;;;;29.59;39.68;101511.44;2378857;28;44727;-82
2022/07/31 16:48:41;;;;;;;;;3.00;2.00;;;;;29.59;39.42;101510.59;2377728;28;46410;-82
2022/07/31 16:49:52;;;;;;;;;3.00;3.00;;;;;29.61;39.66;101514.00;2372313;28;45460;-82
2022/07/31 16:51:03;;;;;;;;;2.75;2.75;;;;;29.60;39.50;101505.03;2374872;28;45290;-82
2022/07/31 16:52:13;;;;;;;;;2.50;2.50;;;;;29.63;39.48;101507.41;2380456;28;45804;-82
2022/07/31 16:53:26;;;;;;;;;4.00;4.00;;;;;29.63;39.63;101506.59;2380664;28;46112;-82
2022/07/31 16:54:36;;;;;;;;;4.25;4.25;;;;;29.64;39.85;101508.25;2380603;28;45538;-83
2022/07/31 16:55:47;;;;;;;;;5.00;2.50;;;;;29.66;39.40;101517.06;2376756;28;46512;-83
2022/07/31 16:56:57;;;;;;;;;3.00;3.00;;;;;29.65;39.47;101510.84;2383393;28;45303;-82
2022/07/31 16:58:09;;;;;;;;;3.75;3.50;;;;;29.66;39.30;101512.50;2383504;28;45443;-83
2022/07/31 16:59:20;;;;;;;;;5.00;4.00;;;;;29.68;39.62;101511.53;2379197;28;45359;-84
2022/07/31 17:00:30;;;;;;;;;2.50;2.50;;;;;29.68;39.46;101511.53;2371992;28;47911;-83
2022/07/31 17:01:40;;;;;;;;;5.00;3.75;;;;;29.66;39.73;101509.81;2375770;28;45459;-82
2022/07/31 17:02:52;;;;;;;;;3.25;3.25;;;;;29.68;39.53;101514.22;2379285;28;46443;-83
2022/07/31 17:04:02;;;;;;;;;3.75;3.75;;;;;29.65;39.18;101510.84;2382832;28;45349;-82
2022/07/31 17:05:12;;;;;;;;;3.50;3.50;;;;;29.68;39.52;101511.53;2381858;28;46406;-83
2022/07/31 17:06:23;;;;;;;;;4.00;3.00;;;;;29.68;39.80;101506.97;2379348;28;45050;-82
2022/07/31 17:07:34;;;;;;;;;3.50;3.50;;;;;29.69;39.62;101510.50;2381581;28;45502;-82
2022/07/31 17:08:44;;;;;;;;;3.00;3.00;;;;;29.70;39.72;101512.22;2379322;28;45465;-82
2022/07/31 17:09:55;;;;;;;;;2.75;2.75;;;;;29.68;40.28;101508.81;2379924;28;45582;-83
2022/07/31 17:11:05;;;;;;;;;3.00;3.00;;;;;29.70;39.54;101507.69;2380128;28;45425;-83
2022/07/31 17:12:16;;;;;;;;;2.25;2.25;;;;;29.73;39.78;101507.34;2379815;28;45398;-83
2022/07/31 17:13:26;;;;;;;;;2.00;2.00;;;;;29.73;39.58;101507.34;2380531;28;44859;-82
2022/07/31 17:14:38;;;;;;;;;3.00;3.00;;;;;29.75;39.33;101509.91;2377368;28;47543;-83